createdAt,value
2018-12-29T00:01:54.829Z,4.20
2018-12-29T00:04:26.264Z,4.20
2018-12-29T00:06:55.783Z,4.20
2018-12-29T00:09:27.270Z,4.20
2018-12-29T00:11:56.762Z,4.20
2018-12-29T00:14:26.173Z,4.20
2018-12-29T00:16:55.703Z,4.20
2018-12-29T00:19:26.138Z,4.20
2018-12-29T00:22:02.412Z,4.20
2018-12-29T00:24:32.876Z,4.20
2018-12-29T00:27:02.369Z,4.20
2018-12-29T00:29:38.663Z,4.20
2018-12-29T00:32:08.182Z,4.20
2018-12-29T00:34:37.684Z,4.20
2018-12-29T00:37:07.220Z,4.20
2018-12-29T00:39:37.646Z,4.20
2018-12-29T00:42:07.150Z,4.20
2018-12-29T00:44:36.672Z,4.20
2018-12-29T00:47:06.107Z,4.20
2018-12-29T00:49:36.537Z,4.20
2018-12-29T00:52:11.897Z,4.20
2018-12-29T00:54:41.390Z,4.30
2018-12-29T00:57:10.775Z,4.30
2018-12-29T00:59:40.268Z,4.20
2018-12-29T01:02:09.766Z,4.30
2018-12-29T01:04:39.312Z,4.30
2018-12-29T01:07:08.784Z,4.30
2018-12-29T01:09:38.203Z,4.20
2018-12-29T01:12:07.699Z,4.20
2018-12-29T01:14:37.111Z,4.20
2018-12-29T01:17:12.669Z,4.20
2018-12-29T01:19:54.130Z,4.20
2018-12-29T01:22:23.704Z,4.30
2018-12-29T01:24:55.193Z,4.30
2018-12-29T01:27:24.685Z,4.30
2018-12-29T01:29:56.184Z,4.30
2018-12-29T01:32:25.711Z,4.30
2018-12-29T01:34:56.237Z,4.30
2018-12-29T01:37:29.713Z,4.40
2018-12-29T01:40:00.161Z,4.40
2018-12-29T01:42:34.780Z,4.40
2018-12-29T01:45:17.472Z,4.40
2018-12-29T01:47:51.180Z,4.30
2018-12-29T01:50:20.683Z,4.30
2018-12-29T01:52:55.218Z,4.30
2018-12-29T01:55:24.762Z,4.30
2018-12-29T01:58:00.452Z,4.30
2018-12-29T02:00:32.088Z,4.30
2018-12-29T02:03:01.531Z,4.30
2018-12-29T02:05:36.982Z,4.30
2018-12-29T02:08:06.409Z,4.30
2018-12-29T02:10:37.904Z,4.40
2018-12-29T02:13:07.410Z,4.40
2018-12-29T02:15:36.813Z,4.30
2018-12-29T02:18:11.358Z,4.30
2018-12-29T02:20:54.836Z,4.30
2018-12-29T02:23:24.320Z,4.40
2018-12-29T02:25:54.277Z,4.40
2018-12-29T02:28:23.753Z,4.30
2018-12-29T02:30:55.292Z,4.30
2018-12-29T02:33:26.830Z,4.30
2018-12-29T02:35:56.849Z,4.30
2018-12-29T02:38:28.309Z,4.30
2018-12-29T02:40:57.772Z,4.30
2018-12-29T02:43:36.442Z,4.30
2018-12-29T02:46:05.867Z,4.30
2018-12-29T02:48:35.360Z,4.30
2018-12-29T02:51:04.812Z,4.30
2018-12-29T02:53:36.364Z,4.30
2018-12-29T02:56:05.779Z,4.30
2018-12-29T02:58:42.276Z,4.30
2018-12-29T03:01:11.808Z,4.30
2018-12-29T03:03:51.191Z,4.30
2018-12-29T03:06:20.685Z,4.30
2018-12-29T03:08:51.228Z,4.30
2018-12-29T03:11:21.828Z,4.30
2018-12-29T03:13:51.205Z,4.30
2018-12-29T03:16:20.653Z,4.30
2018-12-29T03:19:00.294Z,4.30
2018-12-29T03:21:30.765Z,4.30
2018-12-29T03:24:01.211Z,4.30
2018-12-29T03:26:30.710Z,4.30
2018-12-29T03:29:04.226Z,4.30
2018-12-29T03:31:35.788Z,4.30
2018-12-29T03:34:05.198Z,4.20
2018-12-29T03:36:34.680Z,4.20
2018-12-29T03:39:09.419Z,4.20
2018-12-29T03:41:40.950Z,4.20
2018-12-29T03:44:12.427Z,4.20
2018-12-29T03:46:44.010Z,4.20
2018-12-29T03:49:15.425Z,4.20
2018-12-29T03:51:45.090Z,4.20
2018-12-29T03:54:15.588Z,4.10
2018-12-29T03:56:46.103Z,4.20
2018-12-29T03:59:15.518Z,4.10
2018-12-29T04:01:57.184Z,4.20
2018-12-29T04:04:32.623Z,4.20
2018-12-29T04:07:08.320Z,4.20
2018-12-29T04:09:38.837Z,4.10
2018-12-29T04:12:28.763Z,4.10
2018-12-29T04:15:04.096Z,4.20
2018-12-29T04:17:33.523Z,4.20
2018-12-29T04:20:05.063Z,4.20
2018-12-29T04:22:40.312Z,4.20
2018-12-29T04:25:15.999Z,4.20
2018-12-29T04:27:45.454Z,4.20
2018-12-29T04:30:15.963Z,4.20
2018-12-29T04:32:45.507Z,4.20
2018-12-29T04:35:23.016Z,4.20
2018-12-29T04:37:52.444Z,4.20
2018-12-29T04:40:21.913Z,4.20
2018-12-29T04:42:51.421Z,4.20
2018-12-29T04:45:27.181Z,4.20
2018-12-29T04:47:56.658Z,4.20
2018-12-29T04:50:32.134Z,4.30
2018-12-29T04:53:01.570Z,4.20
2018-12-29T04:55:33.143Z,4.20
2018-12-29T04:58:02.606Z,4.20
2018-12-29T05:00:44.120Z,4.20
2018-12-29T05:03:13.556Z,4.30
2018-12-29T05:05:48.304Z,4.30
2018-12-29T05:08:17.843Z,4.30
2018-12-29T05:10:47.378Z,4.30
2018-12-29T05:13:19.914Z,4.30
2018-12-29T05:15:51.427Z,4.30
2018-12-29T05:18:20.821Z,4.30
2018-12-29T05:20:50.360Z,4.30
2018-12-29T05:23:19.859Z,4.40
2018-12-29T05:25:49.393Z,4.40
2018-12-29T05:28:18.904Z,4.40
2018-12-29T05:30:49.365Z,4.40
2018-12-29T05:33:18.752Z,4.40
2018-12-29T05:35:55.000Z,4.40
2018-12-29T05:38:25.451Z,4.40
2018-12-29T05:40:56.902Z,4.50
2018-12-29T05:43:27.355Z,4.40
2018-12-29T05:46:05.761Z,4.40
2018-12-29T05:48:38.257Z,4.40
2018-12-29T05:51:14.514Z,4.40
2018-12-29T05:53:43.961Z,4.50
2018-12-29T05:56:13.498Z,4.50
2018-12-29T05:58:42.973Z,4.60
2018-12-29T06:01:12.406Z,4.60
2018-12-29T06:03:51.932Z,4.60
2018-12-29T06:06:21.388Z,4.60
2018-12-29T06:08:51.860Z,4.60
2018-12-29T06:11:21.330Z,4.60
2018-12-29T06:13:50.897Z,4.70
2018-12-29T06:16:27.500Z,4.70
2018-12-29T06:18:52.522Z,4.70
2018-12-29T06:21:21.978Z,4.70
2018-12-29T06:23:57.551Z,4.70
2018-12-29T06:26:27.132Z,4.70
2018-12-29T06:28:58.603Z,4.70
2018-12-29T06:31:28.070Z,4.70
2018-12-29T06:33:57.527Z,4.70
2018-12-29T06:36:26.983Z,4.80
2018-12-29T06:38:56.611Z,4.80
2018-12-29T06:41:28.124Z,4.80
2018-12-29T06:43:59.775Z,4.80
2018-12-29T06:46:35.070Z,4.80
2018-12-29T06:49:05.759Z,4.80
2018-12-29T06:51:47.515Z,4.90
2018-12-29T06:54:17.020Z,4.80
2018-12-29T06:56:57.924Z,4.80
2018-12-29T06:59:27.446Z,4.90
2018-12-29T07:01:57.390Z,4.90
2018-12-29T07:04:35.112Z,4.90
2018-12-29T07:07:04.610Z,4.90
2018-12-29T07:09:40.268Z,4.90
2018-12-29T07:12:10.687Z,5.00
2018-12-29T07:14:40.164Z,4.90
2018-12-29T07:17:10.594Z,4.90
2018-12-29T07:19:40.016Z,4.90
2018-12-29T07:22:15.410Z,4.90
2018-12-29T07:24:44.932Z,5.00
2018-12-29T07:27:15.393Z,4.90
2018-12-29T07:29:44.921Z,5.00
2018-12-29T07:32:14.351Z,5.00
2018-12-29T07:35:07.716Z,5.00
2018-12-29T07:37:48.071Z,5.00
2018-12-29T07:40:23.744Z,5.00
2018-12-29T07:42:55.173Z,5.00
2018-12-29T07:45:26.665Z,5.00
2018-12-29T07:47:56.172Z,5.00
2018-12-29T07:50:28.789Z,5.00
2018-12-29T07:52:58.346Z,5.00
2018-12-29T07:55:30.938Z,5.00
2018-12-29T07:58:02.440Z,5.00
2018-12-29T08:00:34.060Z,5.10
2018-12-29T08:03:10.389Z,5.10
2018-12-29T08:05:39.889Z,5.10
2018-12-29T08:08:10.377Z,5.10
2018-12-29T08:10:45.004Z,5.10
2018-12-29T08:13:14.551Z,5.20
2018-12-29T08:15:43.989Z,5.20
2018-12-29T08:18:13.420Z,5.20
2018-12-29T08:20:48.877Z,5.20
2018-12-29T08:23:18.295Z,5.20
2018-12-29T08:26:00.826Z,5.20
2018-12-29T08:28:31.272Z,5.20
2018-12-29T08:31:01.747Z,5.30
2018-12-29T08:33:43.100Z,5.30
2018-12-29T08:36:12.560Z,5.30
2018-12-29T08:38:42.032Z,5.30
2018-12-29T08:41:17.876Z,5.40
2018-12-29T08:43:47.436Z,5.40
2018-12-29T08:46:16.814Z,5.40
2018-12-29T08:48:47.172Z,5.40
2018-12-29T08:51:17.766Z,5.40
2018-12-29T08:53:50.445Z,5.40
2018-12-29T08:56:20.965Z,5.50
2018-12-29T08:58:51.426Z,5.50
2018-12-29T09:01:23.028Z,5.50
2018-12-29T09:03:53.534Z,5.50
2018-12-29T09:06:25.094Z,5.50
2018-12-29T09:08:56.598Z,5.50
2018-12-29T09:11:26.056Z,5.50
2018-12-29T09:13:55.561Z,5.60
2018-12-29T09:16:26.068Z,5.60
2018-12-29T09:19:27.310Z,5.60
2018-12-29T09:21:58.069Z,5.60
2018-12-29T09:24:30.637Z,5.60
2018-12-29T09:27:00.149Z,5.70
2018-12-29T09:29:30.561Z,5.70
2018-12-29T09:32:00.027Z,5.70
2018-12-29T09:34:36.356Z,5.70
2018-12-29T09:37:07.873Z,5.70
2018-12-29T09:39:38.418Z,5.70
2018-12-29T09:42:23.136Z,5.80
2018-12-29T09:44:54.813Z,5.70
2018-12-29T09:47:24.339Z,5.80
2018-12-29T09:49:54.831Z,5.80
2018-12-29T09:52:25.377Z,5.80
2018-12-29T09:55:00.766Z,5.80
2018-12-29T09:57:30.190Z,5.80
2018-12-29T10:00:03.711Z,5.80
2018-12-29T10:02:33.242Z,5.80
2018-12-29T10:05:05.238Z,5.80
2018-12-29T10:07:35.746Z,5.80
2018-12-29T10:10:11.276Z,5.80
2018-12-29T10:12:40.725Z,5.90
2018-12-29T10:15:10.209Z,5.90
2018-12-29T10:17:41.784Z,6.00
2018-12-29T10:20:15.300Z,6.00
2018-12-29T10:22:44.699Z,6.10
2018-12-29T10:25:14.176Z,6.00
2018-12-29T10:27:50.508Z,6.10
2018-12-29T10:30:19.953Z,6.10
2018-12-29T10:32:51.488Z,6.20
2018-12-29T10:35:23.032Z,6.20
2018-12-29T10:37:52.447Z,6.30
2018-12-29T10:40:22.962Z,6.30
2018-12-29T10:42:59.424Z,6.20
2018-12-29T10:45:28.929Z,6.20
2018-12-29T10:47:58.457Z,6.30
2018-12-29T10:50:27.962Z,6.30
2018-12-29T10:52:59.507Z,6.30
2018-12-29T10:55:34.871Z,6.30
2018-12-29T10:58:04.433Z,6.30
2018-12-29T11:00:36.005Z,6.30
2018-12-29T11:03:05.465Z,6.30
2018-12-29T11:05:34.961Z,6.30
2018-12-29T11:08:05.486Z,6.30
2018-12-29T11:10:35.975Z,6.30
2018-12-29T11:13:06.668Z,6.40
2018-12-29T11:15:36.132Z,6.40
2018-12-29T11:18:05.569Z,6.40
2018-12-29T11:20:36.065Z,6.40
2018-12-29T11:23:06.628Z,6.40
2018-12-29T11:25:37.095Z,6.40
2018-12-29T11:28:20.694Z,6.40
2018-12-29T11:30:51.171Z,6.50
2018-12-29T11:33:22.641Z,6.50
2018-12-29T11:35:56.749Z,6.50
2018-12-29T11:38:26.243Z,6.50
2018-12-29T11:40:55.704Z,6.50
2018-12-29T11:43:25.212Z,6.50
2018-12-29T11:45:55.665Z,6.50
2018-12-29T11:48:25.261Z,6.50
2018-12-29T11:51:00.514Z,6.50
2018-12-29T11:53:30.360Z,6.50
2018-12-29T11:55:59.846Z,6.50
2018-12-29T11:58:31.350Z,6.50
2018-12-29T12:01:07.014Z,6.50
2018-12-29T12:03:36.847Z,6.50
2018-12-29T12:06:06.400Z,6.50
2018-12-29T12:08:42.884Z,6.60
2018-12-29T12:11:12.275Z,6.60
2018-12-29T12:13:48.562Z,6.70
2018-12-29T12:16:18.056Z,6.70
2018-12-29T12:18:49.536Z,6.70
2018-12-29T12:21:19.000Z,6.60
2018-12-29T12:23:49.467Z,6.60
2018-12-29T12:26:24.076Z,6.60
2018-12-29T12:28:54.512Z,6.60
2018-12-29T12:31:25.534Z,6.60
2018-12-29T12:33:55.009Z,6.70
2018-12-29T12:36:26.483Z,6.70
2018-12-29T12:39:04.516Z,6.70
2018-12-29T12:41:35.407Z,6.70
2018-12-29T12:44:05.147Z,6.70
2018-12-29T12:46:34.698Z,6.80
2018-12-29T12:49:05.593Z,6.80
2018-12-29T12:51:40.902Z,6.90
2018-12-29T12:54:10.847Z,7.00
2018-12-29T12:56:41.328Z,7.00
2018-12-29T12:59:19.925Z,7.10
2018-12-29T13:01:59.144Z,7.10
2018-12-29T13:04:29.652Z,7.20
2018-12-29T13:06:59.375Z,7.20
2018-12-29T13:09:31.955Z,7.10
2018-12-29T13:12:01.377Z,7.20
2018-12-29T13:14:36.780Z,7.10
2018-12-29T13:17:06.696Z,7.00
2018-12-29T13:19:39.326Z,7.00
2018-12-29T13:22:17.705Z,7.00
2018-12-29T13:24:49.175Z,7.00
2018-12-29T13:27:18.661Z,7.00
2018-12-29T13:29:48.068Z,7.00
2018-12-29T13:32:17.572Z,7.00
2018-12-29T13:34:50.319Z,7.00
2018-12-29T13:37:20.930Z,7.00
2018-12-29T13:39:52.426Z,7.00
2018-12-29T13:42:40.035Z,7.00
2018-12-29T13:45:10.481Z,7.00
2018-12-29T13:47:39.896Z,7.00
2018-12-29T13:50:10.396Z,7.00
2018-12-29T13:52:40.891Z,7.00
2018-12-29T13:55:10.386Z,7.00
2018-12-29T13:57:39.789Z,7.00
2018-12-29T14:00:11.354Z,7.00
2018-12-29T14:02:40.888Z,7.00
2018-12-29T14:05:10.374Z,7.00
2018-12-29T14:07:41.080Z,7.00
2018-12-29T14:10:10.600Z,7.00
2018-12-29T14:12:40.140Z,6.90
2018-12-29T14:15:09.753Z,6.90
2018-12-29T14:17:46.349Z,6.90
2018-12-29T14:20:18.923Z,6.80
2018-12-29T14:22:48.405Z,6.80
2018-12-29T14:25:17.813Z,6.80
2018-12-29T14:27:49.294Z,6.80
2018-12-29T14:30:26.561Z,6.70
2018-12-29T14:32:56.065Z,6.70
2018-12-29T14:35:27.575Z,6.70
2018-12-29T14:37:57.056Z,6.70
2018-12-29T14:40:26.527Z,6.70
2018-12-29T14:42:58.148Z,6.80
2018-12-29T14:45:35.458Z,6.70
2018-12-29T14:48:07.008Z,6.70
2018-12-29T14:50:38.498Z,6.70
2018-12-29T14:53:08.949Z,6.70
2018-12-29T14:55:39.436Z,6.70
2018-12-29T14:58:11.039Z,6.70
2018-12-29T15:00:41.501Z,6.70
2018-12-29T15:03:11.025Z,6.70
2018-12-29T15:05:40.565Z,6.70
2018-12-29T15:08:10.158Z,6.60
2018-12-29T15:10:41.274Z,6.60
2018-12-29T15:13:13.178Z,6.60
2018-12-29T15:15:42.793Z,6.60
2018-12-29T15:18:16.171Z,6.60
2018-12-29T15:20:46.937Z,6.50
2018-12-29T15:23:17.981Z,6.50
2018-12-29T15:25:51.492Z,6.50
2018-12-29T15:28:20.985Z,6.50
2018-12-29T15:30:52.043Z,6.50
2018-12-29T15:33:22.590Z,6.50
2018-12-29T15:35:53.139Z,6.60
2018-12-29T15:38:24.654Z,6.60
2018-12-29T15:40:57.740Z,6.60
2018-12-29T15:43:29.253Z,6.60
2018-12-29T15:45:59.753Z,6.60
2018-12-29T15:48:30.083Z,6.60
2018-12-29T15:50:59.538Z,6.50
2018-12-29T15:53:29.078Z,6.40
2018-12-29T15:55:58.589Z,6.40
2018-12-29T15:58:30.062Z,6.40
2018-12-29T16:00:59.554Z,6.40
2018-12-29T16:03:35.060Z,6.40
2018-12-29T16:06:07.043Z,6.40
2018-12-29T16:08:36.783Z,6.40
2018-12-29T16:11:06.591Z,6.40
2018-12-29T16:13:36.346Z,6.40
2018-12-29T16:16:06.103Z,6.40
2018-12-29T16:18:35.961Z,6.40
2018-12-29T16:21:16.281Z,6.40
2018-12-29T16:23:45.749Z,6.40
2018-12-29T16:26:32.750Z,6.40
2018-12-29T16:29:02.222Z,6.40
2018-12-29T16:31:34.811Z,6.40
2018-12-29T16:34:10.414Z,6.40
2018-12-29T16:36:39.925Z,6.40
2018-12-29T16:39:11.451Z,6.40
2018-12-29T16:41:55.029Z,6.40
2018-12-29T16:44:24.498Z,6.40
2018-12-29T16:47:00.412Z,6.40
2018-12-29T16:49:47.683Z,6.40
2018-12-29T16:52:17.511Z,6.40
2018-12-29T16:54:49.070Z,6.50
2018-12-29T16:57:25.882Z,6.50
2018-12-29T16:59:56.695Z,6.50
2018-12-29T17:02:26.162Z,6.50
2018-12-29T17:04:55.702Z,6.50
2018-12-29T17:07:30.627Z,6.50
2018-12-29T17:10:00.248Z,6.60
2018-12-29T17:12:29.770Z,6.60
2018-12-29T17:15:00.247Z,6.60
2018-12-29T17:17:29.963Z,6.60
2018-12-29T17:19:59.450Z,6.60
2018-12-29T17:22:30.458Z,6.60
2018-12-29T17:24:59.892Z,6.70
2018-12-29T17:27:30.375Z,6.70
2018-12-29T17:30:00.158Z,6.60
2018-12-29T17:32:30.688Z,6.70
2018-12-29T17:35:02.247Z,6.70
2018-12-29T17:37:37.624Z,6.70
2018-12-29T17:40:09.102Z,6.60
2018-12-29T17:42:41.879Z,6.70
2018-12-29T17:45:11.562Z,6.70
2018-12-29T17:47:43.002Z,6.70
2018-12-29T17:50:15.706Z,6.70
2018-12-29T17:52:45.168Z,6.70
2018-12-29T17:55:23.052Z,6.70
2018-12-29T17:57:59.863Z,6.80
2018-12-29T18:00:30.313Z,6.80
2018-12-29T18:02:59.888Z,6.80
2018-12-29T18:05:35.127Z,6.80
2018-12-29T18:08:07.325Z,6.80
2018-12-29T18:10:38.843Z,6.90
2018-12-29T18:13:08.318Z,6.80
2018-12-29T18:15:40.876Z,6.90
2018-12-29T18:18:12.506Z,6.90
2018-12-29T18:20:42.159Z,6.90
2018-12-29T18:23:20.889Z,6.90
2018-12-29T18:25:50.301Z,6.90
2018-12-29T18:28:19.771Z,6.90
2018-12-29T18:30:50.377Z,7.00
2018-12-29T18:33:21.017Z,7.00
2018-12-29T18:35:51.485Z,7.00
2018-12-29T18:38:29.193Z,7.00
2018-12-29T18:41:00.621Z,7.00
2018-12-29T18:43:34.213Z,7.10
2018-12-29T18:46:16.050Z,7.10
2018-12-29T18:48:46.538Z,7.10
2018-12-29T18:51:17.960Z,7.20
2018-12-29T18:53:47.766Z,7.20
2018-12-29T18:56:30.377Z,7.20
2018-12-29T18:59:03.856Z,7.20
2018-12-29T19:01:34.549Z,7.20
2018-12-29T19:04:04.140Z,7.20
2018-12-29T19:06:35.052Z,7.20
2018-12-29T19:09:06.927Z,7.30
2018-12-29T19:11:43.156Z,7.30
2018-12-29T19:14:14.058Z,7.30
2018-12-29T19:16:43.488Z,7.30
2018-12-29T19:19:19.978Z,7.30
2018-12-29T19:21:49.453Z,7.40
2018-12-29T19:24:21.008Z,7.40
2018-12-29T19:26:50.451Z,7.50
2018-12-29T19:29:22.018Z,7.50
2018-12-29T19:31:53.551Z,7.60
2018-12-29T19:34:27.450Z,7.50
2018-12-29T19:37:00.514Z,7.50
2018-12-29T19:39:32.485Z,7.60
2018-12-29T19:42:12.822Z,7.60
2018-12-29T19:44:43.293Z,7.60
2018-12-29T19:47:18.950Z,7.60
2018-12-29T19:49:53.581Z,7.70
2018-12-29T19:52:22.616Z,7.70
2018-12-29T19:54:55.175Z,7.80
2018-12-29T19:57:25.175Z,7.80
2018-12-29T19:59:54.605Z,7.80
2018-12-29T20:02:27.643Z,7.90
2018-12-29T20:05:16.449Z,7.90
2018-12-29T20:07:45.869Z,7.90
2018-12-29T20:10:15.359Z,8.00
2018-12-29T20:12:46.778Z,7.90
2018-12-29T20:15:18.345Z,8.00
2018-12-29T20:17:47.903Z,8.00
2018-12-29T20:20:17.391Z,8.10
2018-12-29T20:22:46.939Z,8.10
2018-12-29T20:25:18.403Z,8.10
2018-12-29T20:27:49.236Z,8.10
2018-12-29T20:30:22.711Z,8.10
2018-12-29T20:32:58.916Z,8.20
2018-12-29T20:35:31.546Z,8.30
2018-12-29T20:38:01.082Z,8.40
2018-12-29T20:40:35.780Z,8.50
2018-12-29T20:43:07.262Z,8.70
2018-12-29T20:45:36.922Z,8.70
2018-12-29T20:48:06.771Z,8.70
2018-12-29T20:50:42.216Z,8.70
2018-12-29T20:53:27.014Z,8.70
2018-12-29T20:55:57.468Z,8.70
2018-12-29T20:58:26.985Z,8.70
2018-12-29T21:00:57.543Z,8.70
2018-12-29T21:03:27.025Z,8.70
2018-12-29T21:05:56.423Z,8.70
2018-12-29T21:08:26.953Z,8.70
2018-12-29T21:10:56.363Z,8.80
2018-12-29T21:13:26.196Z,8.80
2018-12-29T21:15:57.988Z,8.80
2018-12-29T21:18:28.483Z,8.80
2018-12-29T21:21:03.934Z,8.80
2018-12-29T21:23:34.695Z,8.80
2018-12-29T21:26:05.232Z,8.80
2018-12-29T21:28:34.929Z,8.80
2018-12-29T21:31:04.628Z,8.70
2018-12-29T21:33:34.585Z,8.70
2018-12-29T21:36:05.112Z,8.70
2018-12-29T21:38:36.609Z,8.70
2018-12-29T21:41:06.099Z,8.70
2018-12-29T21:43:35.635Z,8.70
2018-12-29T21:46:06.545Z,8.60
2018-12-29T21:48:44.093Z,8.50
2018-12-29T21:51:14.612Z,8.50
2018-12-29T21:53:49.391Z,8.40
2018-12-29T21:56:20.135Z,8.30
2018-12-29T21:59:01.113Z,8.40
2018-12-29T22:01:30.560Z,8.40
2018-12-29T22:04:00.025Z,8.30
2018-12-29T22:06:29.522Z,8.30
2018-12-29T22:08:59.221Z,8.30
2018-12-29T22:11:30.057Z,8.30
2018-12-29T22:13:59.549Z,8.30
2018-12-29T22:16:30.051Z,8.40
2018-12-29T22:18:59.607Z,8.40
2018-12-29T22:21:29.069Z,8.40
2018-12-29T22:23:58.568Z,8.40
2018-12-29T22:26:29.275Z,8.40
2018-12-29T22:28:58.793Z,8.40
2018-12-29T22:31:29.290Z,8.40
2018-12-29T22:33:58.845Z,8.30
2018-12-29T22:36:29.279Z,8.40
2018-12-29T22:39:00.755Z,8.40
2018-12-29T22:41:31.371Z,8.30
2018-12-29T22:44:01.208Z,8.40
2018-12-29T22:46:30.721Z,8.40
2018-12-29T22:49:01.186Z,8.40
2018-12-29T22:51:30.747Z,8.40
2018-12-29T22:54:04.206Z,8.40
2018-12-29T22:56:33.848Z,8.40
2018-12-29T22:59:03.318Z,8.40
2018-12-29T23:01:32.819Z,8.40
2018-12-29T23:04:02.270Z,8.30
2018-12-29T23:06:31.774Z,8.30
2018-12-29T23:09:05.988Z,8.40
2018-12-29T23:11:38.590Z,8.40
2018-12-29T23:14:08.192Z,8.40
2018-12-29T23:16:38.698Z,8.40
2018-12-29T23:19:08.412Z,8.30
2018-12-29T23:21:37.970Z,8.30
2018-12-29T23:24:07.729Z,8.30
2018-12-29T23:26:37.291Z,8.30
2018-12-29T23:29:07.133Z,8.40
2018-12-29T23:31:37.770Z,8.30
2018-12-29T23:34:07.344Z,8.30
2018-12-29T23:36:36.836Z,8.30
2018-12-29T23:39:06.525Z,8.30
2018-12-29T23:41:38.108Z,8.30
2018-12-29T23:44:07.550Z,8.20
2018-12-29T23:46:37.454Z,8.30
2018-12-29T23:49:18.026Z,8.20
2018-12-29T23:51:47.545Z,8.20
2018-12-29T23:54:17.017Z,8.30
2018-12-29T23:56:52.694Z,8.30
2018-12-29T23:59:24.296Z,8.30
